Terminal Aerodrome Forecast
Issued by NWS

Home | Current Version | Previous Version | Text Only | Print | Product List | Glossary On
Versions: 1 2 3 4 5 6 7 8 9 10 11 12 13 14 15 16 17 18 19 20 21 22 23
000
FTUS46 KPDT 232300
TAFYKM
TAF
KYKM 232336Z 2400/2424 22007KT P6SM SCT070 SCT200
     FM240300 28010KT P6SM SCT200
     FM240600 27004KT 6SM BR SCT020 SCT200
     FM241200 30003KT 2SM BR SCT003 BKN015
     FM241800 VRB03KT P6SM SCT070 BKN100=

USA.gov is the U.S. government's official web portal to all federal, state and local government web resources and services.